sensor_id;sensor_type;location;lat;lon;timestamp;pressure;altitude;pressure_sealevel;temperature;humidity
23241;BME280;11789;53.482;9.862;2023-06-14T00:00:39;101895.56;;;15.76;71.74
23241;BME280;11789;53.482;9.862;2023-06-14T00:03:07;101899.91;;;15.74;72.07
23241;BME280;11789;53.482;9.862;2023-06-14T00:05:35;101899.94;;;15.71;72.34
23241;BME280;11789;53.482;9.862;2023-06-14T00:08:06;101908.59;;;15.70;72.29
23241;BME280;11789;53.482;9.862;2023-06-14T00:10:36;101907.75;;;15.70;72.30
23241;BME280;11789;53.482;9.862;2023-06-14T00:13:03;101906.03;;;15.67;72.59
23241;BME280;11789;53.482;9.862;2023-06-14T00:15:31;101903.44;;;15.64;72.75
23241;BME280;11789;53.482;9.862;2023-06-14T00:17:57;101912.97;;;15.61;73.09
23241;BME280;11789;53.482;9.862;2023-06-14T00:20:29;101908.66;;;15.58;73.27
23241;BME280;11789;53.482;9.862;2023-06-14T00:22:56;101911.28;;;15.56;73.25
23241;BME280;11789;53.482;9.862;2023-06-14T00:25:25;101915.59;;;15.56;73.40
23241;BME280;11789;53.482;9.862;2023-06-14T00:27:51;101912.13;;;15.54;73.36
23241;BME280;11789;53.482;9.862;2023-06-14T00:30:16;101914.75;;;15.54;73.35
23241;BME280;11789;53.482;9.862;2023-06-14T00:32:42;101909.56;;;15.52;73.38
23241;BME280;11789;53.482;9.862;2023-06-14T00:35:08;101914.75;;;15.51;73.39
23241;BME280;11789;53.482;9.862;2023-06-14T00:37:35;101918.25;;;15.51;73.54
23241;BME280;11789;53.482;9.862;2023-06-14T00:40:01;101932.13;;;15.50;73.60
23241;BME280;11789;53.482;9.862;2023-06-14T00:42:27;101924.31;;;15.49;73.67
23241;BME280;11789;53.482;9.862;2023-06-14T00:44:53;101928.69;;;15.44;74.06
23241;BME280;11789;53.482;9.862;2023-06-14T00:47:18;101931.31;;;15.42;74.41
23241;BME280;11789;53.482;9.862;2023-06-14T00:49:49;101927.84;;;15.39;74.48
23241;BME280;11789;53.482;9.862;2023-06-14T00:52:16;101933.94;;;15.35;74.91
23241;BME280;11789;53.482;9.862;2023-06-14T00:54:42;101932.19;;;15.30;75.15
23241;BME280;11789;53.482;9.862;2023-06-14T00:57:12;101933.09;;;15.26;75.51
23241;BME280;11789;53.482;9.862;2023-06-14T00:59:42;101931.34;;;15.24;75.93
23241;BME280;11789;53.482;9.862;2023-06-14T01:02:08;101925.28;;;15.20;76.10
23241;BME280;11789;53.482;9.862;2023-06-14T01:04:33;101928.75;;;15.19;76.22
23241;BME280;11789;53.482;9.862;2023-06-14T01:07:09;101935.72;;;15.19;76.34
23241;BME280;11789;53.482;9.862;2023-06-14T01:12:37;101935.72;;;15.14;76.88
23241;BME280;11789;53.482;9.862;2023-06-14T01:15:04;101930.53;;;15.11;77.20
23241;BME280;11789;53.482;9.862;2023-06-14T01:17:31;101940.09;;;15.06;77.55
23241;BME280;11789;53.482;9.862;2023-06-14T01:20:00;101941.84;;;15.01;77.75
23241;BME280;11789;53.482;9.862;2023-06-14T01:22:26;101939.25;;;14.96;78.11
23241;BME280;11789;53.482;9.862;2023-06-14T01:24:53;101941.84;;;14.93;78.30
23241;BME280;11789;53.482;9.862;2023-06-14T01:27:22;101945.31;;;14.92;78.58
23241;BME280;11789;53.482;9.862;2023-06-14T01:29:51;101949.69;;;14.90;78.85
23241;BME280;11789;53.482;9.862;2023-06-14T01:32:18;101944.47;;;14.86;79.09
23241;BME280;11789;53.482;9.862;2023-06-14T01:34:44;101943.62;;;14.81;79.31
23241;BME280;11789;53.482;9.862;2023-06-14T01:37:10;101940.16;;;14.80;79.68
23241;BME280;11789;53.482;9.862;2023-06-14T01:39:36;101941.87;;;14.73;80.13
23241;BME280;11789;53.482;9.862;2023-06-14T01:42:03;101942.75;;;14.72;80.24
23241;BME280;11789;53.482;9.862;2023-06-14T01:44:30;101945.34;;;14.71;80.44
23241;BME280;11789;53.482;9.862;2023-06-14T01:46:56;101938.41;;;14.68;80.41
23241;BME280;11789;53.482;9.862;2023-06-14T01:49:22;101949.69;;;14.69;80.55
23241;BME280;11789;53.482;9.862;2023-06-14T01:51:48;101947.09;;;14.66;80.71
23241;BME280;11789;53.482;9.862;2023-06-14T01:54:13;101942.72;;;14.65;80.92
23241;BME280;11789;53.482;9.862;2023-06-14T01:56:39;101944.50;;;14.61;81.19
23241;BME280;11789;53.482;9.862;2023-06-14T01:59:04;101941.00;;;14.59;81.44
23241;BME280;11789;53.482;9.862;2023-06-14T02:01:30;101937.53;;;14.57;81.53
23241;BME280;11789;53.482;9.862;2023-06-14T02:03:56;101939.28;;;14.55;81.83
23241;BME280;11789;53.482;9.862;2023-06-14T02:06:21;101940.16;;;14.52;82.10
23241;BME280;11789;53.482;9.862;2023-06-14T02:08:47;101940.16;;;14.51;82.24
23241;BME280;11789;53.482;9.862;2023-06-14T02:11:12;101941.87;;;14.50;82.22
23241;BME280;11789;53.482;9.862;2023-06-14T02:13:37;101945.34;;;14.48;82.70
23241;BME280;11789;53.482;9.862;2023-06-14T02:16:03;101945.31;;;14.46;82.75
23241;BME280;11789;53.482;9.862;2023-06-14T02:18:29;101934.91;;;14.42;83.05
23241;BME280;11789;53.482;9.862;2023-06-14T02:20:55;101939.25;;;14.40;83.28
23241;BME280;11789;53.482;9.862;2023-06-14T02:23:20;101951.38;;;14.39;83.32
23241;BME280;11789;53.482;9.862;2023-06-14T02:25:46;101953.13;;;14.42;83.42
23241;BME280;11789;53.482;9.862;2023-06-14T02:28:11;101946.16;;;14.39;83.63
23241;BME280;11789;53.482;9.862;2023-06-14T02:30:37;101944.44;;;14.43;83.41
23241;BME280;11789;53.482;9.862;2023-06-14T02:33:02;101949.66;;;14.43;83.70
23241;BME280;11789;53.482;9.862;2023-06-14T02:35:29;101946.19;;;14.41;83.98
23241;BME280;11789;53.482;9.862;2023-06-14T02:37:55;101950.53;;;14.36;84.37
23241;BME280;11789;53.482;9.862;2023-06-14T02:40:21;101944.44;;;14.35;84.48
23241;BME280;11789;53.482;9.862;2023-06-14T02:42:47;101954.84;;;14.37;84.40
23241;BME280;11789;53.482;9.862;2023-06-14T02:45:12;101957.44;;;14.38;84.45
23241;BME280;11789;53.482;9.862;2023-06-14T02:47:38;101965.25;;;14.37;84.52
23241;BME280;11789;53.482;9.862;2023-06-14T02:50:04;101969.59;;;14.38;84.64
23241;BME280;11789;53.482;9.862;2023-06-14T02:52:29;101955.72;;;14.37;84.77
23241;BME280;11789;53.482;9.862;2023-06-14T02:54:55;101961.78;;;14.36;85.05
23241;BME280;11789;53.482;9.862;2023-06-14T02:57:21;101958.31;;;14.33;85.15
23241;BME280;11789;53.482;9.862;2023-06-14T02:59:47;101957.44;;;14.31;85.50
23241;BME280;11789;53.482;9.862;2023-06-14T03:02:12;101971.31;;;14.26;85.73
23241;BME280;11789;53.482;9.862;2023-06-14T03:04:37;101959.16;;;14.24;85.92
23241;BME280;11789;53.482;9.862;2023-06-14T03:07:04;101966.09;;;14.22;86.11
23241;BME280;11789;53.482;9.862;2023-06-14T03:09:35;101966.97;;;14.19;86.37
23241;BME280;11789;53.482;9.862;2023-06-14T03:12:02;101972.16;;;14.16;86.97
23241;BME280;11789;53.482;9.862;2023-06-14T03:14:28;101971.28;;;14.16;86.99
23241;BME280;11789;53.482;9.862;2023-06-14T03:16:56;101964.38;;;14.15;87.33
23241;BME280;11789;53.482;9.862;2023-06-14T03:19:22;101972.16;;;14.16;87.46
23241;BME280;11789;53.482;9.862;2023-06-14T03:21:48;101973.00;;;14.14;87.86
23241;BME280;11789;53.482;9.862;2023-06-14T03:24:14;101978.22;;;14.11;88.27
23241;BME280;11789;53.482;9.862;2023-06-14T03:26:41;101973.88;;;14.11;88.58
23241;BME280;11789;53.482;9.862;2023-06-14T03:29:07;101979.94;;;14.12;88.65
23241;BME280;11789;53.482;9.862;2023-06-14T03:31:34;101981.69;;;14.11;88.82
23241;BME280;11789;53.482;9.862;2023-06-14T03:34:00;101978.22;;;14.11;89.03
23241;BME280;11789;53.482;9.862;2023-06-14T03:36:26;101989.47;;;14.11;89.17
23241;BME280;11789;53.482;9.862;2023-06-14T03:38:53;101984.28;;;14.10;89.43
23241;BME280;11789;53.482;9.862;2023-06-14T03:41:20;101994.66;;;14.08;89.78
23241;BME280;11789;53.482;9.862;2023-06-14T03:43:45;101994.66;;;14.07;89.81
23241;BME280;11789;53.482;9.862;2023-06-14T03:46:11;101994.66;;;14.07;90.18
23241;BME280;11789;53.482;9.862;2023-06-14T03:48:36;101997.25;;;14.07;90.32
23241;BME280;11789;53.482;9.862;2023-06-14T03:51:02;101995.53;;;14.09;90.33
23241;BME280;11789;53.482;9.862;2023-06-14T03:53:27;102001.62;;;14.12;90.13
23241;BME280;11789;53.482;9.862;2023-06-14T03:55:54;102003.37;;;14.15;90.10
23241;BME280;11789;53.482;9.862;2023-06-14T03:58:20;102005.09;;;14.14;90.07
23241;BME280;11789;53.482;9.862;2023-06-14T04:00:47;102013.75;;;14.18;90.19
23241;BME280;11789;53.482;9.862;2023-06-14T04:03:12;102010.31;;;14.22;90.22
23241;BME280;11789;53.482;9.862;2023-06-14T04:05:41;102012.94;;;14.25;90.05
23241;BME280;11789;53.482;9.862;2023-06-14T04:08:09;102018.16;;;14.30;90.01
23241;BME280;11789;53.482;9.862;2023-06-14T04:10:35;102025.94;;;14.33;90.02
23241;BME280;11789;53.482;9.862;2023-06-14T04:13:01;102026.84;;;14.41;89.67
23241;BME280;11789;53.482;9.862;2023-06-14T04:15:26;102032.06;;;14.45;89.36
23241;BME280;11789;53.482;9.862;2023-06-14T04:17:54;102026.87;;;14.51;89.08
23241;BME280;11789;53.482;9.862;2023-06-14T04:20:22;102039.03;;;14.59;88.94
23241;BME280;11789;53.482;9.862;2023-06-14T04:22:50;102037.28;;;14.59;88.94
23241;BME280;11789;53.482;9.862;2023-06-14T04:25:15;102039.03;;;14.63;88.83
23241;BME280;11789;53.482;9.862;2023-06-14T04:27:42;102039.91;;;14.67;88.81
23241;BME280;11789;53.482;9.862;2023-06-14T04:30:08;102036.44;;;14.69;88.96
23241;BME280;11789;53.482;9.862;2023-06-14T04:32:34;102052.06;;;14.74;88.72
23241;BME280;11789;53.482;9.862;2023-06-14T04:35:00;102042.53;;;14.77;88.76
23241;BME280;11789;53.482;9.862;2023-06-14T04:37:29;102043.37;;;14.79;88.85
23241;BME280;11789;53.482;9.862;2023-06-14T04:39:55;102043.41;;;14.86;88.72
23241;BME280;11789;53.482;9.862;2023-06-14T04:42:21;102038.19;;;14.92;88.62
23241;BME280;11789;53.482;9.862;2023-06-14T04:44:50;102034.72;;;14.99;88.57
23241;BME280;11789;53.482;9.862;2023-06-14T04:47:17;102039.94;;;15.02;88.42
23241;BME280;11789;53.482;9.862;2023-06-14T04:49:42;102046.87;;;15.11;88.30
23241;BME280;11789;53.482;9.862;2023-06-14T04:52:08;102043.41;;;15.16;87.73
23241;BME280;11789;53.482;9.862;2023-06-14T04:54:38;102038.19;;;15.22;87.20
23241;BME280;11789;53.482;9.862;2023-06-14T04:57:06;102040.75;;;15.25;86.91
23241;BME280;11789;53.482;9.862;2023-06-14T04:59:32;102034.69;;;15.29;86.38
23241;BME280;11789;53.482;9.862;2023-06-14T05:01:58;102043.37;;;15.33;86.68
23241;BME280;11789;53.482;9.862;2023-06-14T05:04:25;102045.09;;;15.36;86.09
23241;BME280;11789;53.482;9.862;2023-06-14T05:06:52;102040.72;;;15.45;85.66
23241;BME280;11789;53.482;9.862;2023-06-14T05:09:20;102036.41;;;15.52;85.08
23241;BME280;11789;53.482;9.862;2023-06-14T05:11:45;102039.84;;;15.51;84.98
23241;BME280;11789;53.482;9.862;2023-06-14T05:14:11;102042.44;;;15.55;84.97
23241;BME280;11789;53.482;9.862;2023-06-14T05:16:37;102039.87;;;15.66;84.15
23241;BME280;11789;53.482;9.862;2023-06-14T05:19:04;102033.78;;;15.72;83.68
23241;BME280;11789;53.482;9.862;2023-06-14T05:21:30;102045.06;;;15.69;83.39
23241;BME280;11789;53.482;9.862;2023-06-14T05:23:57;102033.72;;;15.79;83.21
23241;BME280;11789;53.482;9.862;2023-06-14T05:26:22;102038.06;;;15.83;82.78
23241;BME280;11789;53.482;9.862;2023-06-14T05:28:50;102038.94;;;15.84;82.32
23241;BME280;11789;53.482;9.862;2023-06-14T05:31:17;102037.19;;;15.88;81.80
23241;BME280;11789;53.482;9.862;2023-06-14T05:33:43;102037.13;;;16.00;81.38
23241;BME280;11789;53.482;9.862;2023-06-14T05:36:08;102040.56;;;16.05;80.83
23241;BME280;11789;53.482;9.862;2023-06-14T05:38:34;102031.88;;;16.12;80.61
23241;BME280;11789;53.482;9.862;2023-06-14T05:40:59;102034.38;;;16.27;80.38
23241;BME280;11789;53.482;9.862;2023-06-14T05:43:25;102039.53;;;16.43;78.66
23241;BME280;11789;53.482;9.862;2023-06-14T05:45:50;102039.47;;;16.46;78.10
23241;BME280;11789;53.482;9.862;2023-06-14T05:48:16;102036.81;;;16.52;77.19
23241;BME280;11789;53.482;9.862;2023-06-14T05:50:41;102042.88;;;16.57;77.13
23241;BME280;11789;53.482;9.862;2023-06-14T05:53:06;102047.16;;;16.69;76.43
23241;BME280;11789;53.482;9.862;2023-06-14T05:55:32;102043.63;;;16.83;76.31
23241;BME280;11789;53.482;9.862;2023-06-14T05:57:57;102053.06;;;16.97;75.27
23241;BME280;11789;53.482;9.862;2023-06-14T06:00:23;102053.97;;;16.93;75.11
23241;BME280;11789;53.482;9.862;2023-06-14T06:02:48;102059.16;;;17.00;75.04
23241;BME280;11789;53.482;9.862;2023-06-14T06:05:14;102059.12;;;17.03;74.11
23241;BME280;11789;53.482;9.862;2023-06-14T06:07:41;102067.03;;;16.93;73.35
23241;BME280;11789;53.482;9.862;2023-06-14T06:10:07;102066.16;;;16.92;73.32
23241;BME280;11789;53.482;9.862;2023-06-14T06:12:33;102071.28;;;17.03;72.61
23241;BME280;11789;53.482;9.862;2023-06-14T06:14:59;102069.44;;;17.17;72.44
23241;BME280;11789;53.482;9.862;2023-06-14T06:17:28;102062.31;;;17.33;71.73
23241;BME280;11789;53.482;9.862;2023-06-14T06:19:53;102064.84;;;17.44;72.00
23241;BME280;11789;53.482;9.862;2023-06-14T06:22:19;102063.00;;;17.52;71.10
23241;BME280;11789;53.482;9.862;2023-06-14T06:24:44;102065.62;;;17.52;71.17
23241;BME280;11789;53.482;9.862;2023-06-14T06:27:10;102072.53;;;17.59;71.28
23241;BME280;11789;53.482;9.862;2023-06-14T06:29:37;102074.22;;;17.63;69.97
23241;BME280;11789;53.482;9.862;2023-06-14T06:32:03;102076.81;;;17.66;69.83
23241;BME280;11789;53.482;9.862;2023-06-14T06:34:29;102072.50;;;17.60;69.56
23241;BME280;11789;53.482;9.862;2023-06-14T06:36:54;102068.94;;;17.68;69.84
23241;BME280;11789;53.482;9.862;2023-06-14T06:39:20;102080.25;;;17.74;68.07
23241;BME280;11789;53.482;9.862;2023-06-14T06:41:48;102073.25;;;17.76;68.01
23241;BME280;11789;53.482;9.862;2023-06-14T06:44:13;102074.09;;;17.77;67.61
23241;BME280;11789;53.482;9.862;2023-06-14T06:46:39;102083.69;;;17.78;68.01
23241;BME280;11789;53.482;9.862;2023-06-14T06:49:06;102075.88;;;17.76;66.75
23241;BME280;11789;53.482;9.862;2023-06-14T06:51:32;102083.63;;;17.82;66.44
23241;BME280;11789;53.482;9.862;2023-06-14T06:53:58;102082.59;;;17.97;66.46
23241;BME280;11789;53.482;9.862;2023-06-14T06:56:23;102087.78;;;18.00;64.28
23241;BME280;11789;53.482;9.862;2023-06-14T06:58:50;102093.03;;;17.99;64.00
23241;BME280;11789;53.482;9.862;2023-06-14T07:01:16;102091.28;;;18.01;63.75
23241;BME280;11789;53.482;9.862;2023-06-14T07:03:42;102091.19;;;18.07;63.57
23241;BME280;11789;53.482;9.862;2023-06-14T07:06:07;102087.66;;;18.09;63.55
23241;BME280;11789;53.482;9.862;2023-06-14T07:08:35;102095.41;;;18.19;63.36
23241;BME280;11789;53.482;9.862;2023-06-14T07:11:01;102101.50;;;18.19;61.92
23241;BME280;11789;53.482;9.862;2023-06-14T07:13:27;102096.25;;;18.19;61.24
23241;BME280;11789;53.482;9.862;2023-06-14T07:15:58;102098.84;;;18.25;59.12
23241;BME280;11789;53.482;9.862;2023-06-14T07:18:25;102100.66;;;18.20;59.15
23241;BME280;11789;53.482;9.862;2023-06-14T07:20:50;102100.66;;;18.20;58.68
23241;BME280;11789;53.482;9.862;2023-06-14T07:23:17;102105.78;;;18.26;58.54
23241;BME280;11789;53.482;9.862;2023-06-14T07:25:42;102109.31;;;18.22;57.62
23241;BME280;11789;53.482;9.862;2023-06-14T07:28:08;102099.72;;;18.23;58.53
23241;BME280;11789;53.482;9.862;2023-06-14T07:30:33;102101.25;;;18.39;58.80
23241;BME280;11789;53.482;9.862;2023-06-14T07:32:59;102099.44;;;18.44;57.90
23241;BME280;11789;53.482;9.862;2023-06-14T07:35:24;102096.84;;;18.42;56.79
23241;BME280;11789;53.482;9.862;2023-06-14T07:37:49;102104.59;;;18.49;57.57
23241;BME280;11789;53.482;9.862;2023-06-14T07:40:15;102088.84;;;18.53;56.61
23241;BME280;11789;53.482;9.862;2023-06-14T07:42:41;102095.69;;;18.62;56.63
23241;BME280;11789;53.482;9.862;2023-06-14T07:45:06;102099.97;;;18.71;56.41
23241;BME280;11789;53.482;9.862;2023-06-14T07:47:32;102099.88;;;18.77;56.73
23241;BME280;11789;53.482;9.862;2023-06-14T07:49:58;102098.88;;;18.84;56.11
23241;BME280;11789;53.482;9.862;2023-06-14T07:52:23;102095.38;;;18.86;56.27
23241;BME280;11789;53.482;9.862;2023-06-14T07:54:49;102099.66;;;18.90;56.28
23241;BME280;11789;53.482;9.862;2023-06-14T07:57:14;102095.31;;;18.89;55.69
23241;BME280;11789;53.482;9.862;2023-06-14T07:59:40;102092.78;;;18.83;55.89
23241;BME280;11789;53.482;9.862;2023-06-14T08:02:06;102097.13;;;18.84;55.38
23241;BME280;11789;53.482;9.862;2023-06-14T08:04:32;102093.56;;;18.88;55.92
23241;BME280;11789;53.482;9.862;2023-06-14T08:06:58;102093.38;;;19.01;55.36
23241;BME280;11789;53.482;9.862;2023-06-14T08:09:23;102097.72;;;19.03;56.25
23241;BME280;11789;53.482;9.862;2023-06-14T08:11:50;102097.59;;;19.09;56.57
23241;BME280;11789;53.482;9.862;2023-06-14T08:14:15;102088.78;;;19.15;55.51
23241;BME280;11789;53.482;9.862;2023-06-14T08:16:41;102084.28;;;19.23;55.57
23241;BME280;11789;53.482;9.862;2023-06-14T08:19:07;102076.38;;;19.26;54.38
23241;BME280;11789;53.482;9.862;2023-06-14T08:21:32;102084.09;;;19.34;54.08
23241;BME280;11789;53.482;9.862;2023-06-14T08:23:59;102080.53;;;19.38;53.83
23241;BME280;11789;53.482;9.862;2023-06-14T08:26:25;102081.34;;;19.41;53.52
23241;BME280;11789;53.482;9.862;2023-06-14T08:28:54;102083.84;;;19.48;53.73
23241;BME280;11789;53.482;9.862;2023-06-14T08:31:20;102090.66;;;19.56;53.99
23241;BME280;11789;53.482;9.862;2023-06-14T08:33:46;102087.06;;;19.63;52.65
23241;BME280;11789;53.482;9.862;2023-06-14T08:36:11;102086.91;;;19.71;52.37
23241;BME280;11789;53.482;9.862;2023-06-14T08:38:38;102086.00;;;19.74;52.00
23241;BME280;11789;53.482;9.862;2023-06-14T08:41:05;102085.94;;;19.77;52.63
23241;BME280;11789;53.482;9.862;2023-06-14T08:43:33;102075.25;;;19.87;51.82
23241;BME280;11789;53.482;9.862;2023-06-14T08:46:02;102084.13;;;19.80;51.68
23241;BME280;11789;53.482;9.862;2023-06-14T08:48:29;102078.81;;;19.83;52.19
23241;BME280;11789;53.482;9.862;2023-06-14T08:50:59;102080.28;;;19.96;51.27
23241;BME280;11789;53.482;9.862;2023-06-14T08:53:34;102077.56;;;20.03;51.10
23241;BME280;11789;53.482;9.862;2023-06-14T08:56:02;102086.06;;;20.14;51.31
23241;BME280;11789;53.482;9.862;2023-06-14T08:58:30;102078.28;;;20.09;51.58
23241;BME280;11789;53.482;9.862;2023-06-14T09:01:03;102080.63;;;20.23;51.92
23241;BME280;11789;53.482;9.862;2023-06-14T09:03:30;102090.84;;;20.35;51.44
23241;BME280;11789;53.482;9.862;2023-06-14T09:05:59;102082.81;;;20.43;50.20
23241;BME280;11789;53.482;9.862;2023-06-14T09:08:26;102084.59;;;20.41;50.18
23241;BME280;11789;53.482;9.862;2023-06-14T09:10:52;102079.38;;;20.39;50.46
23241;BME280;11789;53.482;9.862;2023-06-14T09:13:18;102076.59;;;20.45;50.41
23241;BME280;11789;53.482;9.862;2023-06-14T09:15:43;102080.25;;;20.40;50.37
23241;BME280;11789;53.482;9.862;2023-06-14T09:18:09;102079.94;;;20.55;50.64
23241;BME280;11789;53.482;9.862;2023-06-14T09:20:34;102083.31;;;20.60;48.76
23241;BME280;11789;53.482;9.862;2023-06-14T09:23:00;102086.66;;;20.67;48.76
23241;BME280;11789;53.482;9.862;2023-06-14T09:25:26;102076.12;;;20.68;48.49
23241;BME280;11789;53.482;9.862;2023-06-14T09:27:52;102075.97;;;20.75;48.76
23241;BME280;11789;53.482;9.862;2023-06-14T09:30:20;102088.66;;;20.93;48.99
23241;BME280;11789;53.482;9.862;2023-06-14T09:32:46;102073.78;;;20.93;48.34
23241;BME280;11789;53.482;9.862;2023-06-14T09:35:11;102074.53;;;20.98;47.45
23241;BME280;11789;53.482;9.862;2023-06-14T09:37:37;102068.25;;;21.04;48.09
23241;BME280;11789;53.482;9.862;2023-06-14T09:40:05;102076.09;;;21.06;48.31
23241;BME280;11789;53.482;9.862;2023-06-14T09:42:32;102071.50;;;21.14;48.96
23241;BME280;11789;53.482;9.862;2023-06-14T09:45:02;102079.19;;;21.21;47.22
23241;BME280;11789;53.482;9.862;2023-06-14T09:47:28;102073.59;;;21.35;46.13
23241;BME280;11789;53.482;9.862;2023-06-14T09:49:54;102077.06;;;21.37;45.79
23241;BME280;11789;53.482;9.862;2023-06-14T09:52:21;102073.72;;;21.31;45.59
23241;BME280;11789;53.482;9.862;2023-06-14T09:54:48;102072.84;;;21.29;46.27
23241;BME280;11789;53.482;9.862;2023-06-14T09:57:22;102077.59;;;21.16;46.81
23241;BME280;11789;53.482;9.862;2023-06-14T09:59:53;102066.03;;;21.21;46.76
23241;BME280;11789;53.482;9.862;2023-06-14T10:02:21;102080.97;;;21.21;47.11
23241;BME280;11789;53.482;9.862;2023-06-14T10:04:58;102073.97;;;21.20;45.77
23241;BME280;11789;53.482;9.862;2023-06-14T10:07:30;102069.66;;;21.17;46.64
23241;BME280;11789;53.482;9.862;2023-06-14T10:09:57;102072.72;;;21.01;46.84
23241;BME280;11789;53.482;9.862;2023-06-14T10:12:23;102077.75;;;21.10;46.42
23241;BME280;11789;53.482;9.862;2023-06-14T10:14:49;102069.53;;;21.22;45.38
23241;BME280;11789;53.482;9.862;2023-06-14T10:17:46;102071.75;;;21.39;45.97
23241;BME280;11789;53.482;9.862;2023-06-14T10:20:30;102061.09;;;21.43;45.50
23241;BME280;11789;53.482;9.862;2023-06-14T10:23:19;102078.41;;;21.52;45.93
23241;BME280;11789;53.482;9.862;2023-06-14T10:25:45;102069.44;;;21.59;46.54
23241;BME280;11789;53.482;9.862;2023-06-14T10:30:39;102067.06;;;21.16;46.49
23241;BME280;11789;53.482;9.862;2023-06-14T10:33:05;102053.00;;;21.17;47.63
23241;BME280;11789;53.482;9.862;2023-06-14T10:35:32;102054.84;;;21.13;46.70
23241;BME280;11789;53.482;9.862;2023-06-14T10:38:09;102057.47;;;21.13;45.94
23241;BME280;11789;53.482;9.862;2023-06-14T10:40:38;102050.41;;;21.15;45.91
23241;BME280;11789;53.482;9.862;2023-06-14T10:43:23;102055.41;;;21.26;46.66
23241;BME280;11789;53.482;9.862;2023-06-14T10:46:13;102058.03;;;21.26;46.10
23241;BME280;11789;53.482;9.862;2023-06-14T10:48:42;102045.06;;;21.18;46.12
23241;BME280;11789;53.482;9.862;2023-06-14T10:51:20;102045.84;;;21.22;46.13
23241;BME280;11789;53.482;9.862;2023-06-14T10:53:47;102048.59;;;21.19;46.48
23241;BME280;11789;53.482;9.862;2023-06-14T10:56:27;102053.84;;;21.19;46.45
23241;BME280;11789;53.482;9.862;2023-06-14T10:58:54;102036.91;;;21.29;46.39
23241;BME280;11789;53.482;9.862;2023-06-14T11:01:31;102044.56;;;21.40;45.15
23241;BME280;11789;53.482;9.862;2023-06-14T11:04:06;102038.16;;;21.48;44.36
23241;BME280;11789;53.482;9.862;2023-06-14T11:06:45;102030.56;;;21.69;45.22
23241;BME280;11789;53.482;9.862;2023-06-14T11:12:33;102030.50;;;22.01;45.17
23241;BME280;11789;53.482;9.862;2023-06-14T11:15:01;102029.78;;;21.96;44.02
23241;BME280;11789;53.482;9.862;2023-06-14T11:17:26;102031.13;;;21.80;45.02
23241;BME280;11789;53.482;9.862;2023-06-14T11:20:10;102026.16;;;21.69;45.53
23241;BME280;11789;53.482;9.862;2023-06-14T11:22:41;102031.41;;;21.71;45.33
23241;BME280;11789;53.482;9.862;2023-06-14T11:25:09;102023.25;;;21.80;44.06
23241;BME280;11789;53.482;9.862;2023-06-14T11:27:34;102016.34;;;21.74;44.41
23241;BME280;11789;53.482;9.862;2023-06-14T11:30:00;102023.56;;;21.68;44.02
23241;BME280;11789;53.482;9.862;2023-06-14T11:32:25;102019.47;;;21.58;43.99
23241;BME280;11789;53.482;9.862;2023-06-14T11:34:51;102008.16;;;21.56;44.42
23241;BME280;11789;53.482;9.862;2023-06-14T11:37:17;102005.06;;;21.71;45.18
23241;BME280;11789;53.482;9.862;2023-06-14T11:39:45;102007.59;;;21.74;42.93
23241;BME280;11789;53.482;9.862;2023-06-14T11:42:17;102012.25;;;21.66;44.43
23241;BME280;11789;53.482;9.862;2023-06-14T11:44:46;102011.41;;;21.64;44.90
23241;BME280;11789;53.482;9.862;2023-06-14T11:47:12;102011.41;;;21.64;44.10
23241;BME280;11789;53.482;9.862;2023-06-14T11:49:38;102015.12;;;21.57;44.50
23241;BME280;11789;53.482;9.862;2023-06-14T11:52:03;102009.13;;;21.52;44.63
23241;BME280;11789;53.482;9.862;2023-06-14T11:54:29;102012.56;;;21.54;44.86
23241;BME280;11789;53.482;9.862;2023-06-14T11:56:55;102006.44;;;21.55;44.65
23241;BME280;11789;53.482;9.862;2023-06-14T11:59:20;102001.00;;;21.59;44.91
23241;BME280;11789;53.482;9.862;2023-06-14T12:01:47;102003.31;;;21.71;44.96
23241;BME280;11789;53.482;9.862;2023-06-14T12:04:13;102005.25;;;21.94;43.81
23241;BME280;11789;53.482;9.862;2023-06-14T12:06:38;101986.50;;;22.05;42.24
23241;BME280;11789;53.482;9.862;2023-06-14T12:09:08;101993.28;;;22.14;41.35
23241;BME280;11789;53.482;9.862;2023-06-14T12:11:43;101986.81;;;22.24;41.45
23241;BME280;11789;53.482;9.862;2023-06-14T12:14:09;101980.09;;;22.42;40.93
23241;BME280;11789;53.482;9.862;2023-06-14T12:16:36;101972.00;;;22.48;40.13
23241;BME280;11789;53.482;9.862;2023-06-14T12:21:37;101976.59;;;22.68;41.16
23241;BME280;11789;53.482;9.862;2023-06-14T12:24:04;101969.19;;;22.79;40.60
23241;BME280;11789;53.482;9.862;2023-06-14T12:26:32;101976.19;;;22.80;40.32
23241;BME280;11789;53.482;9.862;2023-06-14T12:28:58;101969.78;;;22.89;39.10
23241;BME280;11789;53.482;9.862;2023-06-14T12:31:23;101991.31;;;23.01;38.63
23241;BME280;11789;53.482;9.862;2023-06-14T12:33:49;101975.53;;;23.00;37.48
23241;BME280;11789;53.482;9.862;2023-06-14T12:36:15;101980.16;;;22.93;38.53
23241;BME280;11789;53.482;9.862;2023-06-14T12:38:42;101978.47;;;22.91;38.29
23241;BME280;11789;53.482;9.862;2023-06-14T12:41:08;101973.59;;;22.78;39.12
23241;BME280;11789;53.482;9.862;2023-06-14T12:43:33;101975.06;;;22.61;40.24
23241;BME280;11789;53.482;9.862;2023-06-14T12:46:00;101976.91;;;22.59;40.64
23241;BME280;11789;53.482;9.862;2023-06-14T12:48:26;101977.88;;;22.56;40.58
23241;BME280;11789;53.482;9.862;2023-06-14T12:50:56;101979.47;;;22.60;41.14
23241;BME280;11789;53.482;9.862;2023-06-14T12:53:22;101977.19;;;22.49;41.30
23241;BME280;11789;53.482;9.862;2023-06-14T12:55:48;101972.91;;;22.47;41.03
23241;BME280;11789;53.482;9.862;2023-06-14T12:58:13;101979.41;;;22.35;42.46
23241;BME280;11789;53.482;9.862;2023-06-14T13:00:40;101975.34;;;22.25;42.73